Time;durP1;ratioP1;P1;durP2;ratioP2;P2;SDS_P1;SDS_P2;PMS_P1;PMS_P2;Temp;Humidity;BMP_temperature;BMP_pressure;BME280_temperature;BME280_humidity;BME280_pressure;Samples;Min_cycle;Max_cycle;Signal;HPM_P1;HPM_P2
2023/07/07 03:01:37;;;;;;;58.50;55.40;;;12.50;99.90;;;;;;5342022;23;20681;-66
2023/07/07 03:04:03;;;;;;;59.53;56.40;;;12.50;99.90;;;;;;4933685;29;20217;-67
2023/07/07 03:06:28;;;;;;;47.77;45.20;;;12.50;99.90;;;;;;4933484;29;20526;-67
2023/07/07 03:08:54;;;;;;;71.00;67.30;;;12.40;99.90;;;;;;4933171;29;20190;-67
2023/07/07 03:11:22;;;;;;;93.03;88.13;;;12.50;99.90;;;;;;4928295;29;20404;-67
2023/07/07 03:13:49;;;;;;;89.47;84.70;;;12.50;99.90;;;;;;4932980;29;20198;-67
2023/07/07 03:16:21;;;;;;;86.77;82.23;;;12.50;99.90;;;;;;4933407;29;20253;-67
2023/07/07 03:18:55;;;;;;;73.63;69.60;;;12.50;99.90;;;;;;4933158;29;20233;-67
2023/07/07 03:21:22;;;;;;;89.97;85.33;;;12.50;99.90;;;;;;4911985;29;20357;-67
2023/07/07 03:23:51;;;;;;;96.80;91.73;;;12.50;99.90;;;;;;4933385;29;20190;-67
2023/07/07 03:26:19;;;;;;;95.83;90.60;;;12.40;99.90;;;;;;4933182;29;20214;-68
2023/07/07 03:28:45;;;;;;;103.00;97.47;;;12.50;99.90;;;;;;4931348;29;20179;-67
2023/07/07 03:31:13;;;;;;;104.47;98.90;;;12.50;99.90;;;;;;4915969;29;20562;-67
2023/07/07 03:33:41;;;;;;;110.87;105.07;;;12.40;99.90;;;;;;4915558;29;20231;-67
2023/07/07 03:36:10;;;;;;;99.97;94.60;;;12.50;99.90;;;;;;4925747;29;20250;-67
2023/07/07 03:38:42;;;;;;;67.67;63.87;;;12.50;99.90;;;;;;4928229;29;20198;-68
2023/07/07 03:41:14;;;;;;;74.37;70.47;;;12.40;99.90;;;;;;4927055;29;20323;-68
2023/07/07 03:43:45;;;;;;;122.20;115.77;;;12.40;99.90;;;;;;4925744;29;20226;-68
2023/07/07 03:46:18;;;;;;;74.20;70.00;;;12.50;99.90;;;;;;4915763;29;20222;-68
2023/07/07 03:48:45;;;;;;;141.30;134.03;;;12.40;99.90;;;;;;4914678;29;20686;-68
2023/07/07 03:51:12;;;;;;;140.07;132.67;;;12.50;99.90;;;;;;4932561;29;20218;-68
2023/07/07 03:53:38;;;;;;;166.10;157.40;;;12.50;99.90;;;;;;4915882;29;20562;-67
2023/07/07 03:56:05;;;;;;;160.87;152.30;;;12.50;99.90;;;;;;4932981;29;20198;-67
2023/07/07 03:58:31;;;;;;;104.77;99.17;;;12.60;99.90;;;;;;4931698;29;20218;-67
2023/07/07 04:01:06;;;;;;;24.40;22.93;;;12.60;99.90;;;;;;4915552;29;20254;-67
2023/07/07 04:03:32;;;;;;;30.67;28.93;;;12.70;99.90;;;;;;4934131;29;20657;-68
2023/07/07 04:05:58;;;;;;;21.97;20.37;;;12.70;99.90;;;;;;4934570;29;20361;-67
2023/07/07 04:08:25;;;;;;;14.07;13.17;;;12.70;99.90;;;;;;4918361;29;20298;-67
2023/07/07 04:11:14;;;;;;;9.30;8.60;;;12.80;99.90;;;;;;4935337;29;20608;-67
2023/07/07 04:13:43;;;;;;;9.67;8.93;;;12.90;99.90;;;;;;4936192;29;20194;-68
2023/07/07 04:16:12;;;;;;;17.07;15.97;;;13.00;99.90;;;;;;4936061;29;20245;-68
2023/07/07 04:18:40;;;;;;;10.83;10.13;;;13.00;99.90;;;;;;4926221;29;20187;-68
2023/07/07 04:21:09;;;;;;;19.97;18.40;;;13.10;99.90;;;;;;4916131;29;20293;-68
2023/07/07 04:23:36;;;;;;;21.17;20.07;;;13.10;99.90;;;;;;4932467;29;20187;-68
2023/07/07 04:26:04;;;;;;;21.70;20.47;;;13.20;99.90;;;;;;4916444;29;20211;-68
2023/07/07 04:28:30;;;;;;;15.97;14.97;;;13.20;99.90;;;;;;4916538;29;20779;-68
2023/07/07 04:30:57;;;;;;;7.90;7.20;;;13.30;99.90;;;;;;4930762;29;20217;-68
2023/07/07 04:33:26;;;;;;;21.23;19.87;;;13.50;99.90;;;;;;4935507;29;20201;-67
2023/07/07 04:35:57;;;;;;;48.27;45.70;;;13.50;99.90;;;;;;4930257;29;20266;-67
2023/07/07 04:38:30;;;;;;;46.90;44.27;;;13.60;99.90;;;;;;4916702;29;20251;-68
2023/07/07 04:41:15;;;;;;;39.53;37.03;;;13.60;99.90;;;;;;4930367;29;20214;-68
2023/07/07 04:43:44;;;;;;;32.20;30.37;;;13.70;99.90;;;;;;4923307;29;20202;-68
2023/07/07 04:46:12;;;;;;;38.40;35.77;;;13.80;99.90;;;;;;4916347;29;20370;-68
2023/07/07 04:48:39;;;;;;;56.17;53.17;;;14.00;99.90;;;;;;4898972;29;20187;-68
2023/07/07 04:51:09;;;;;;;96.90;91.33;;;14.10;99.90;;;;;;4931310;29;20671;-68
2023/07/07 04:53:36;;;;;;;100.20;95.10;;;14.20;99.90;;;;;;4927427;29;20285;-68
2023/07/07 04:56:06;;;;;;;56.47;53.30;;;14.40;99.90;;;;;;4935358;29;20193;-68
2023/07/07 04:58:32;;;;;;;21.93;20.67;;;14.50;99.90;;;;;;4926163;29;20194;-68
2023/07/07 05:01:08;;;;;;;9.67;9.00;;;14.60;99.90;;;;;;4930022;29;20229;-68
2023/07/07 05:03:35;;;;;;;14.17;13.17;;;14.80;99.90;;;;;;4918119;29;20340;-68
2023/07/07 05:06:03;;;;;;;7.33;6.83;;;14.90;99.90;;;;;;4935127;29;20214;-68
2023/07/07 05:08:32;;;;;;;11.70;10.70;;;15.20;99.90;;;;;;4932764;29;20198;-68
2023/07/07 05:10:58;;;;;;;12.63;11.73;;;15.60;99.90;;;;;;4929997;29;20344;-68
2023/07/07 05:13:24;;;;;;;39.27;37.07;;;16.20;99.90;;;;;;4912189;29;20556;-68
2023/07/07 05:15:50;;;;;;;23.37;21.80;;;16.90;99.90;;;;;;4915671;29;20198;-68
2023/07/07 05:18:16;;;;;;;15.47;14.40;;;17.40;99.90;;;;;;4915171;29;20187;-68
2023/07/07 05:20:42;;;;;;;45.65;42.90;;;18.00;99.90;;;;;;4926332;29;20574;-68
2023/07/07 05:23:09;;;;;;;33.67;31.40;;;18.30;99.90;;;;;;4929165;29;20558;-68
2023/07/07 05:25:37;;;;;;;13.98;13.10;;;18.60;99.90;;;;;;4926643;29;20187;-68
2023/07/07 05:28:03;;;;;;;10.68;9.98;;;18.60;99.90;;;;;;4934160;29;20222;-69
2023/07/07 05:30:28;;;;;;;14.18;13.20;;;18.80;99.90;;;;;;4934447;29;20265;-68
2023/07/07 05:32:54;;;;;;;19.83;18.63;;;19.00;99.90;;;;;;4929416;29;20686;-68
2023/07/07 05:35:20;;;;;;;13.23;12.38;;;19.30;99.90;;;;;;4928971;29;20739;-67
2023/07/07 05:37:46;;;;;;;8.60;7.47;;;19.70;99.90;;;;;;4934092;29;20198;-68
2023/07/07 05:40:11;;;;;;;7.78;7.18;;;19.90;99.90;;;;;;4933858;29;20195;-67
2023/07/07 05:42:37;;;;;;;7.68;6.97;;;20.00;99.90;;;;;;4931872;29;20198;-67
2023/07/07 05:45:03;;;;;;;7.72;7.03;;;20.20;99.90;;;;;;4917114;29;20194;-67
2023/07/07 05:47:29;;;;;;;10.65;9.75;;;20.70;99.90;;;;;;4933782;29;20238;-67
2023/07/07 05:49:54;;;;;;;8.63;8.00;;;21.30;99.90;;;;;;4917386;29;20190;-68
2023/07/07 05:52:21;;;;;;;15.05;14.10;;;21.90;99.90;;;;;;4931314;29;20211;-68
2023/07/07 05:54:47;;;;;;;22.95;21.55;;;22.60;99.90;;;;;;4933735;29;20734;-67
2023/07/07 05:57:12;;;;;;;23.52;22.17;;;22.90;99.90;;;;;;4916268;29;20229;-67
2023/07/07 05:59:38;;;;;;;13.40;12.65;;;23.00;99.90;;;;;;4913886;29;20206;-67
2023/07/07 06:02:04;;;;;;;11.30;10.40;;;23.10;99.90;;;;;;4914943;29;20775;-68
2023/07/07 06:04:30;;;;;;;8.15;7.35;;;22.80;99.90;;;;;;4930134;29;20190;-66
2023/07/07 06:06:56;;;;;;;9.20;8.50;;;22.70;99.90;;;;;;4932437;29;20221;-67
2023/07/07 06:09:21;;;;;;;12.27;6.07;;;22.70;99.90;;;;;;4933722;29;20189;-68
2023/07/07 06:11:47;;;;;;;7.47;6.95;;;22.90;99.90;;;;;;4920909;29;20214;-68
2023/07/07 06:14:13;;;;;;;7.55;6.95;;;23.40;98.90;;;;;;4914281;29;20636;-68
2023/07/07 06:16:39;;;;;;;7.95;7.25;;;23.90;97.50;;;;;;4934234;29;20210;-68
2023/07/07 06:19:05;;;;;;;12.93;12.13;;;24.00;96.40;;;;;;4933605;29;20250;-68
2023/07/07 06:21:30;;;;;;;16.55;15.50;;;24.50;95.70;;;;;;4933954;29;20249;-68
2023/07/07 06:23:56;;;;;;;10.07;9.07;;;24.90;94.60;;;;;;4931949;29;20622;-67
2023/07/07 06:26:22;;;;;;;6.10;5.55;;;25.30;93.50;;;;;;4933478;29;20210;-66
2023/07/07 06:28:48;;;;;;;6.70;5.80;;;25.50;92.50;;;;;;4933065;29;20651;-68
2023/07/07 06:31:13;;;;;;;6.82;6.10;;;25.50;91.70;;;;;;4933765;29;20273;-67
2023/07/07 06:33:40;;;;;;;6.35;5.80;;;25.40;91.40;;;;;;4927747;29;20231;-69
2023/07/07 06:36:06;;;;;;;6.72;6.18;;;25.90;91.10;;;;;;4929308;29;20186;-69
2023/07/07 06:38:32;;;;;;;6.93;6.28;;;26.00;89.80;;;;;;4933349;29;20737;-68
2023/07/07 06:40:58;;;;;;;9.40;8.73;;;26.10;89.80;;;;;;4917316;29;20212;-68
2023/07/07 06:43:23;;;;;;;9.45;8.43;;;26.10;89.10;;;;;;4924515;29;20198;-68
2023/07/07 06:45:51;;;;;;;9.05;8.35;;;26.40;87.50;;;;;;4933672;29;20221;-68
2023/07/07 06:48:17;;;;;;;11.05;10.35;;;26.50;86.60;;;;;;4933670;29;20182;-67
2023/07/07 06:50:43;;;;;;;12.15;11.35;;;26.60;85.90;;;;;;4933866;29;20218;-67
2023/07/07 06:53:11;;;;;;;11.15;10.02;;;26.60;84.90;;;;;;4932315;29;20261;-67
2023/07/07 06:55:38;;;;;;;11.40;10.30;;;26.80;84.00;;;;;;4933545;29;20186;-67
2023/07/07 06:58:04;;;;;;;8.73;8.10;;;27.00;82.50;;;;;;4933394;29;20205;-67
2023/07/07 07:00:31;;;;;;;7.55;6.85;;;27.20;82.40;;;;;;4933058;29;20318;-68
2023/07/07 07:02:57;;;;;;;8.15;7.40;;;27.60;82.50;;;;;;4928492;29;20205;-68
2023/07/07 07:05:22;;;;;;;10.55;9.85;;;28.10;79.30;;;;;;4916774;29;20250;-68
2023/07/07 07:07:48;;;;;;;10.02;9.25;;;28.10;77.50;;;;;;4916418;29;20226;-68
2023/07/07 07:10:14;;;;;;;8.30;7.57;;;28.50;76.40;;;;;;4916573;29;20190;-68
2023/07/07 07:12:40;;;;;;;6.55;6.15;;;28.70;75.50;;;;;;4910412;29;20190;-68
2023/07/07 07:15:09;;;;;;;5.68;5.20;;;28.80;75.10;;;;;;4912775;29;20233;-67
2023/07/07 07:17:35;;;;;;;6.72;4.90;;;28.80;73.50;;;;;;4932957;29;20202;-67
2023/07/07 07:20:01;;;;;;;6.28;5.78;;;28.90;73.00;;;;;;4933732;29;20198;-68
2023/07/07 07:22:27;;;;;;;6.60;5.65;;;28.90;72.50;;;;;;4928557;29;20213;-67
2023/07/07 07:24:52;;;;;;;5.60;5.13;;;29.10;72.50;;;;;;4916433;29;20194;-67
2023/07/07 07:27:18;;;;;;;6.07;5.65;;;29.30;72.40;;;;;;4932995;29;20213;-67
2023/07/07 07:29:44;;;;;;;6.35;5.70;;;29.70;71.60;;;;;;4933308;29;20202;-67
2023/07/07 07:32:11;;;;;;;8.75;7.47;;;30.00;70.90;;;;;;4928808;29;20202;-67
2023/07/07 07:34:36;;;;;;;7.55;6.97;;;30.10;69.80;;;;;;4933264;29;20191;-67
2023/07/07 07:37:04;;;;;;;9.65;8.75;;;30.40;69.30;;;;;;4932982;29;20245;-67
2023/07/07 07:39:30;;;;;;;11.68;10.93;;;30.40;68.50;;;;;;4935529;29;20205;-67
2023/07/07 07:41:56;;;;;;;17.77;16.67;;;30.30;68.10;;;;;;4935513;29;20825;-67
2023/07/07 07:44:24;;;;;;;19.02;17.73;;;30.20;67.70;;;;;;4933510;29;20217;-67
2023/07/07 07:46:51;;;;;;;21.83;20.63;;;30.20;68.20;;;;;;4919440;29;20749;-68
2023/07/07 07:49:17;;;;;;;19.83;18.52;;;30.30;67.70;;;;;;4936978;29;20560;-67
2023/07/07 07:51:44;;;;;;;15.02;14.15;;;30.10;68.50;;;;;;4934399;29;20226;-67
2023/07/07 07:54:12;;;;;;;13.88;12.98;;;30.00;68.30;;;;;;4936846;29;20242;-67
2023/07/07 07:56:39;;;;;;;20.23;19.00;;;30.00;68.70;;;;;;4936813;29;20186;-67
2023/07/07 07:59:06;;;;;;;22.75;21.52;;;30.20;68.60;;;;;;4936367;29;20194;-67
2023/07/07 08:01:32;;;;;;;19.92;18.67;;;30.40;67.80;;;;;;4934100;29;20305;-67
2023/07/07 08:03:57;;;;;;;19.70;18.58;;;30.50;67.10;;;;;;4936590;29;20218;-67
2023/07/07 08:06:23;;;;;;;22.33;20.98;;;29.90;68.00;;;;;;4936367;29;20214;-69
2023/07/07 08:08:50;;;;;;;19.30;18.08;;;30.00;69.00;;;;;;4936120;29;20190;-67
2023/07/07 08:11:26;;;;;;;15.23;14.23;;;30.50;68.70;;;;;;4934492;29;20207;-67
2023/07/07 08:13:51;;;;;;;15.27;14.10;;;30.70;67.60;;;;;;4936438;29;20186;-68
2023/07/07 08:16:17;;;;;;;13.70;12.80;;;30.60;67.80;;;;;;4934509;29;20737;-67
2023/07/07 08:18:43;;;;;;;14.10;13.15;;;30.80;67.30;;;;;;4935817;29;20205;-68
2023/07/07 08:21:09;;;;;;;9.82;8.85;;;30.90;67.70;;;;;;4934334;29;20345;-68
2023/07/07 08:23:35;;;;;;;7.88;7.18;;;31.20;66.20;;;;;;4933014;29;20191;-69
2023/07/07 08:26:00;;;;;;;9.13;8.32;;;31.30;64.90;;;;;;4936133;29;20249;-68
2023/07/07 08:28:26;;;;;;;7.32;6.45;;;31.50;65.30;;;;;;4918845;29;20195;-67
2023/07/07 08:30:52;;;;;;;9.13;8.25;;;31.60;63.80;;;;;;4933242;29;20202;-68
2023/07/07 08:33:18;;;;;;;13.20;12.15;;;31.70;63.90;;;;;;4935998;29;20198;-68
2023/07/07 08:35:44;;;;;;;24.77;23.27;;;31.50;63.20;;;;;;4919141;29;20197;-68
2023/07/07 08:38:10;;;;;;;17.85;16.58;;;31.50;60.10;;;;;;4935773;29;20194;-68
2023/07/07 08:40:51;;;;;;;22.10;20.73;;;31.40;60.10;;;;;;4933532;29;20775;-68
2023/07/07 08:43:18;;;;;;;21.92;20.52;;;31.20;59.40;;;;;;4936135;29;20190;-67
2023/07/07 08:45:57;;;;;;;11.50;10.35;;;31.00;59.40;;;;;;4935889;29;20580;-67
2023/07/07 08:48:32;;;;;;;9.13;8.23;;;30.90;60.00;;;;;;4935715;29;20221;-67
2023/07/07 08:51:06;;;;;;;9.05;8.27;;;30.80;60.90;;;;;;4916121;29;20288;-68
2023/07/07 08:53:42;;;;;;;11.02;10.10;;;30.80;59.90;;;;;;4935452;29;20548;-68
2023/07/07 08:56:35;;;;;;;11.35;10.45;;;30.90;58.80;;;;;;4936003;29;20311;-68
2023/07/07 08:59:19;;;;;;;10.55;9.80;;;30.80;58.60;;;;;;4931209;29;20195;-67
2023/07/07 09:01:59;;;;;;;13.68;12.27;;;30.90;57.80;;;;;;4931008;29;20317;-67
2023/07/07 09:04:42;;;;;;;17.83;16.52;;;31.00;57.20;;;;;;4925246;29;20286;-67
2023/07/07 09:07:46;;;;;;;16.33;15.30;;;30.90;56.90;;;;;;4916218;29;20215;-68
2023/07/07 09:10:30;;;;;;;27.00;25.35;;;31.20;55.30;;;;;;4911837;29;20203;-68
2023/07/07 09:13:21;;;;;;;31.35;29.38;;;31.00;52.70;;;;;;4934390;29;20273;-68
2023/07/07 09:16:29;;;;;;;25.33;23.63;;;31.20;54.10;;;;;;4913633;29;20191;-67
2023/07/07 09:18:55;;;;;;;25.20;23.70;;;31.20;54.00;;;;;;4898525;29;20202;-67
2023/07/07 09:21:31;;;;;;;26.67;24.95;;;30.90;54.50;;;;;;4925113;29;20585;-66
2023/07/07 09:24:03;;;;;;;30.23;28.42;;;30.90;54.10;;;;;;4934993;29;20560;-67
2023/07/07 09:26:33;;;;;;;23.00;21.70;;;31.20;53.60;;;;;;4917715;29;20217;-66
2023/07/07 09:29:03;;;;;;;20.92;19.50;;;31.20;54.50;;;;;;4917461;29;20190;-66
2023/07/07 09:31:41;;;;;;;34.33;32.35;;;30.70;56.50;;;;;;4933112;29;20297;-66
2023/07/07 09:34:11;;;;;;;19.75;18.52;;;30.90;54.70;;;;;;4918919;29;20191;-66
2023/07/07 09:37:10;;;;;;;27.13;25.52;;;31.00;54.80;;;;;;4915958;29;20198;-67
2023/07/07 09:39:51;;;;;;;32.55;30.42;;;31.00;53.90;;;;;;4898759;29;20580;-67
2023/07/07 09:42:45;;;;;;;34.88;32.65;;;31.50;53.20;;;;;;4932065;29;20214;-67
2023/07/07 09:45:23;;;;;;;36.78;34.67;;;31.90;53.00;;;;;;4934170;29;20194;-67
2023/07/07 09:47:58;;;;;;;46.83;44.22;;;32.10;52.60;;;;;;4934003;29;20214;-67
2023/07/07 09:50:30;;;;;;;32.45;30.55;;;32.60;51.10;;;;;;4932974;29;20277;-68
2023/07/07 09:53:07;;;;;;;15.45;14.25;;;33.10;51.00;;;;;;4928198;29;20671;-68
2023/07/07 09:55:36;;;;;;;11.38;10.38;;;33.70;48.10;;;;;;4898316;29;20197;-68
2023/07/07 09:58:15;;;;;;;8.57;7.70;;;34.60;46.80;;;;;;4914358;29;20733;-68
2023/07/07 10:00:48;;;;;;;10.55;9.55;;;34.60;47.80;;;;;;4925840;29;20710;-69
2023/07/07 10:03:27;;;;;;;9.77;8.88;;;34.10;48.20;;;;;;4934229;29;20726;-67
2023/07/07 10:05:54;;;;;;;10.02;9.15;;;34.20;48.00;;;;;;4917494;29;20570;-67
2023/07/07 10:08:20;;;;;;;8.10;7.60;;;34.00;47.30;;;;;;4933644;29;20194;-66
2023/07/07 10:10:53;;;;;;;15.70;14.60;;;33.60;48.30;;;;;;4933349;29;20224;-67
2023/07/07 10:13:19;;;;;;;12.63;11.73;;;32.80;49.40;;;;;;4933779;29;20578;-67
2023/07/07 10:15:48;;;;;;;12.75;11.68;;;32.90;50.20;;;;;;4930059;29;20186;-67
2023/07/07 10:18:28;;;;;;;11.35;10.48;;;33.40;48.50;;;;;;4926121;29;20958;-67
2023/07/07 10:20:57;;;;;;;11.85;10.65;;;33.90;47.90;;;;;;4927937;29;20208;-66
2023/07/07 10:23:26;;;;;;;8.82;7.97;;;34.10;48.00;;;;;;4916476;29;20253;-67
2023/07/07 10:25:52;;;;;;;8.27;7.57;;;34.50;47.00;;;;;;4933439;29;20205;-67
2023/07/07 10:28:20;;;;;;;8.10;7.35;;;33.80;46.50;;;;;;4932967;29;20191;-66
2023/07/07 10:30:47;;;;;;;8.95;8.13;;;33.30;47.50;;;;;;4928919;29;20549;-69
2023/07/07 10:33:15;;;;;;;10.07;8.95;;;33.20;47.00;;;;;;4930210;29;20191;-66
2023/07/07 10:35:41;;;;;;;10.27;9.15;;;33.30;46.80;;;;;;4933392;29;20201;-66
2023/07/07 10:38:09;;;;;;;11.20;10.10;;;33.50;46.80;;;;;;4916065;29;20190;-66
2023/07/07 10:40:36;;;;;;;11.43;10.45;;;33.30;47.40;;;;;;4930112;29;20886;-66
2023/07/07 10:43:03;;;;;;;10.80;9.77;;;33.70;47.30;;;;;;4929350;29;20246;-67
2023/07/07 10:45:29;;;;;;;10.45;9.55;;;33.70;46.50;;;;;;4922566;29;20750;-67
2023/07/07 10:47:56;;;;;;;9.88;8.95;;;33.80;47.10;;;;;;4914348;29;20218;-65
2023/07/07 10:50:25;;;;;;;13.90;12.90;;;34.20;45.90;;;;;;4914799;29;20199;-67
2023/07/07 10:53:08;;;;;;;13.57;12.43;;;34.00;46.40;;;;;;4928277;29;20222;-69
2023/07/07 10:55:59;;;;;;;10.50;9.60;;;33.80;46.20;;;;;;4934113;29;20190;-68
2023/07/07 10:59:02;;;;;;;9.98;9.02;;;34.30;45.30;;;;;;4916526;29;20198;-67
2023/07/07 11:01:33;;;;;;;7.57;6.78;;;34.80;43.90;;;;;;4926294;29;20268;-66
2023/07/07 11:04:11;;;;;;;8.90;8.00;;;34.50;42.50;;;;;;4933590;29;20190;-67
2023/07/07 11:06:59;;;;;;;11.30;8.35;;;34.30;43.30;;;;;;4933644;29;20694;-66
2023/07/07 11:09:44;;;;;;;8.95;7.45;;;34.50;42.80;;;;;;4927066;29;20186;-66
2023/07/07 11:12:34;;;;;;;8.57;7.70;;;35.70;41.90;;;;;;4925330;29;20213;-66
2023/07/07 11:15:25;;;;;;;14.60;13.48;;;35.80;42.30;;;;;;4932773;29;20201;-66
2023/07/07 11:18:18;;;;;;;12.77;11.80;;;36.30;40.40;;;;;;4920771;29;20281;-66
2023/07/07 11:21:08;;;;;;;18.88;17.42;;;36.50;41.20;;;;;;4928928;29;20226;-67
2023/07/07 11:24:02;;;;;;;13.95;12.60;;;36.50;40.40;;;;;;4936894;29;20197;-65
2023/07/07 11:27:07;;;;;;;14.43;13.32;;;36.10;40.10;;;;;;4936750;29;20293;-67
2023/07/07 11:29:35;;;;;;;17.25;15.85;;;35.40;40.90;;;;;;4884907;29;20712;-67
2023/07/07 11:32:26;;;;;;;16.27;14.88;;;35.90;40.10;;;;;;4930582;29;20258;-68
2023/07/07 11:35:20;;;;;;;13.00;11.80;;;36.80;39.40;;;;;;4936564;29;20221;-66
2023/07/07 11:38:14;;;;;;;12.02;10.93;;;36.20;39.60;;;;;;4936343;29;20198;-65
2023/07/07 11:40:57;;;;;;;9.55;8.55;;;37.60;38.40;;;;;;4907005;29;20233;-66
2023/07/07 11:43:44;;;;;;;9.55;8.55;;;37.70;37.80;;;;;;4927237;29;20190;-66
2023/07/07 11:46:24;;;;;;;11.30;10.32;;;37.80;37.20;;;;;;4936389;29;20645;-66
2023/07/07 11:49:01;;;;;;;11.80;10.55;;;37.40;37.10;;;;;;4936437;29;20197;-65
2023/07/07 11:51:51;;;;;;;10.88;9.48;;;38.20;36.40;;;;;;4930215;29;20218;-64
2023/07/07 11:54:38;;;;;;;11.63;10.50;;;38.20;36.90;;;;;;4936363;29;20285;-65
2023/07/07 11:57:07;;;;;;;9.70;8.70;;;38.40;36.40;;;;;;4935981;29;20190;-65
2023/07/07 12:00:00;;;;;;;8.52;7.63;;;37.80;36.00;;;;;;4936256;29;20273;-65
2023/07/07 12:02:34;;;;;;;13.65;12.20;;;37.70;36.60;;;;;;4930143;29;20674;-64
2023/07/07 12:05:01;;;;;;;9.68;7.75;;;38.00;36.80;;;;;;4922821;29;20767;-66
2023/07/07 12:07:33;;;;;;;10.55;9.57;;;38.20;41.80;;;;;;4918029;29;20577;-65
2023/07/07 12:10:12;;;;;;;17.50;16.20;;;37.30;36.50;;;;;;4923600;29;20180;-77
2023/07/07 12:12:45;;;;;;;11.52;10.48;;;36.50;36.20;;;;;;4915294;29;20312;-78
2023/07/07 12:15:17;;;;;;;11.35;10.45;;;36.50;36.40;;;;;;4936768;29;20241;-78
2023/07/07 12:17:50;;;;;;;13.38;12.05;;;36.40;37.40;;;;;;4901239;29;20221;-77
2023/07/07 12:20:26;;;;;;;12.30;11.00;;;36.20;37.60;;;;;;4918645;29;20298;-78
2023/07/07 12:22:52;;;;;;;12.13;10.77;;;;;;;;;;4930158;29;20194;-78
2023/07/07 12:25:26;;;;;;;12.07;10.30;;;36.90;36.20;;;;;;4917919;29;20290;-78
2023/07/07 12:27:53;;;;;;;11.10;9.52;;;37.10;35.80;;;;;;4915894;29;20770;-76
2023/07/07 12:30:23;;;;;;;10.63;7.97;;;37.60;35.10;;;;;;4917080;29;20678;-78
2023/07/07 12:32:51;;;;;;;11.20;10.10;;;37.60;35.70;;;;;;4930550;29;20214;-77
2023/07/07 12:35:40;;;;;;;14.85;13.38;;;37.00;35.40;;;;;;4936025;29;20214;-76
2023/07/07 12:38:28;;;;;;;12.85;11.73;;;36.90;35.90;;;;;;4935796;29;20198;-77
2023/07/07 12:40:58;;;;;;;13.70;12.13;;;37.30;35.30;;;;;;4932955;29;20250;-76
2023/07/07 12:43:27;;;;;;;10.05;9.15;;;37.20;35.80;;;;;;4917591;29;20197;-76
2023/07/07 12:45:55;;;;;;;11.10;10.13;;;37.00;36.00;;;;;;4919115;29;20194;-76
2023/07/07 12:48:30;;;;;;;12.77;11.60;;;36.70;36.10;;;;;;4918576;29;20710;-76
2023/07/07 12:51:07;;;;;;;12.75;11.48;;;36.40;36.60;;;;;;4932940;29;20211;-77
2023/07/07 12:53:43;;;;;;;9.82;8.18;;;37.50;35.50;;;;;;4935866;29;20185;-76
2023/07/07 12:56:09;;;;;;;9.20;8.30;;;37.80;34.60;;;;;;4920447;29;20861;-76
2023/07/07 12:58:45;;;;;;;10.50;9.05;;;37.70;34.80;;;;;;4927686;29;20245;-77
2023/07/07 13:01:14;;;;;;;10.32;8.63;;;37.10;34.70;;;;;;4931343;29;20535;-76
2023/07/07 13:03:58;;;;;;;13.45;9.15;;;37.00;34.60;;;;;;4926914;29;20730;-76
2023/07/07 13:06:46;;;;;;;9.13;8.23;;;37.60;34.70;;;;;;4918821;29;20296;-77
2023/07/07 13:09:12;;;;;;;11.40;8.18;;;38.70;33.80;;;;;;4935309;29;20194;-76
2023/07/07 13:11:39;;;;;;;9.52;8.57;;;38.20;33.50;;;;;;4914182;29;20203;-76
2023/07/07 13:14:25;;;;;;;9.77;8.77;;;37.50;33.60;;;;;;4935574;29;20760;-76
2023/07/07 13:16:52;;;;;;;10.13;8.68;;;37.80;33.90;;;;;;4918407;29;20206;-77
2023/07/07 13:19:18;;;;;;;10.60;8.32;;;38.30;33.70;;;;;;4935337;29;20191;-77
2023/07/07 13:21:46;;;;;;;9.75;8.85;;;39.50;33.10;;;;;;4931321;29;20210;-77
2023/07/07 13:24:18;;;;;;;11.43;10.30;;;39.50;33.00;;;;;;4917892;29;20194;-77
2023/07/07 13:26:44;;;;;;;9.80;8.82;;;39.60;33.00;;;;;;4928470;29;20622;-76
2023/07/07 13:29:10;;;;;;;12.40;11.32;;;38.70;33.50;;;;;;4934768;29;20191;-76
2023/07/07 13:31:41;;;;;;;12.95;10.57;;;37.70;34.60;;;;;;4931148;29;20215;-76
2023/07/07 13:34:15;;;;;;;9.80;8.80;;;37.70;34.40;;;;;;4919862;29;20230;-76
2023/07/07 13:36:41;;;;;;;11.13;9.18;;;38.00;34.20;;;;;;4927179;29;20220;-76
2023/07/07 13:39:14;;;;;;;10.38;9.38;;;38.80;32.90;;;;;;4917844;29;20190;-76
2023/07/07 13:41:47;;;;;;;9.52;8.63;;;39.20;33.20;;;;;;4914395;29;20214;-77
2023/07/07 13:44:21;;;;;;;9.82;7.93;;;40.10;33.80;;;;;;4917967;29;20209;-77
2023/07/07 13:46:49;;;;;;;10.77;8.48;;;41.60;30.60;;;;;;4930219;29;20225;-76
2023/07/07 13:49:18;;;;;;;10.75;8.02;;;41.50;31.30;;;;;;4915821;29;20230;-76
2023/07/07 13:51:53;;;;;;;10.55;8.18;;;41.10;30.30;;;;;;4920404;29;20241;-77
2023/07/07 13:54:22;;;;;;;8.02;7.22;;;41.00;30.40;;;;;;4910049;29;20198;-76
2023/07/07 13:56:53;;;;;;;9.23;8.32;;;41.10;30.60;;;;;;4934700;29;20607;-76
2023/07/07 13:59:26;;;;;;;11.60;7.90;;;40.50;30.90;;;;;;4909744;29;20190;-77
2023/07/07 14:01:54;;;;;;;10.05;8.30;;;40.10;30.90;;;;;;4915003;29;20218;-76
2023/07/07 14:04:35;;;;;;;10.85;8.30;;;39.00;32.20;;;;;;4934313;29;20197;-76
2023/07/07 14:07:02;;;;;;;8.85;8.00;;;38.80;32.50;;;;;;4918461;29;20226;-76
2023/07/07 14:09:29;;;;;;;9.02;8.23;;;38.80;31.90;;;;;;4898373;29;20198;-76
2023/07/07 14:11:57;;;;;;;8.77;7.78;;;39.60;31.30;;;;;;4921386;29;20677;-76
2023/07/07 14:14:25;;;;;;;9.57;8.45;;;40.40;31.20;;;;;;4922884;29;20282;-77
2023/07/07 14:17:02;;;;;;;9.30;8.40;;;40.40;31.10;;;;;;4927010;29;20634;-77
2023/07/07 14:19:51;;;;;;;8.68;7.82;;;40.10;31.20;;;;;;4901417;29;20778;-77
2023/07/07 14:22:17;;;;;;;9.32;8.35;;;40.80;30.50;;;;;;4894279;29;20304;-76
2023/07/07 14:24:43;;;;;;;9.00;8.10;;;40.10;30.80;;;;;;4910591;29;20248;-76
2023/07/07 14:27:13;;;;;;;10.63;8.73;;;40.30;30.90;;;;;;4933857;29;20818;-77
2023/07/07 14:29:42;;;;;;;12.18;8.52;;;39.90;31.00;;;;;;4926849;29;20221;-77
2023/07/07 14:32:16;;;;;;;11.70;7.45;;;40.50;30.60;;;;;;4932141;29;20762;-77
2023/07/07 14:34:51;;;;;;;10.35;8.32;;;40.40;30.30;;;;;;4927136;29;20866;-77
2023/07/07 14:37:48;;;;;;;10.73;8.75;;;39.80;31.50;;;;;;4917178;29;20198;-77
2023/07/07 14:40:28;;;;;;;9.40;8.40;;;38.50;32.20;;;;;;4913676;29;20210;-77
2023/07/07 14:42:54;;;;;;;9.05;7.63;;;38.70;32.10;;;;;;4928843;29;20573;-78
2023/07/07 14:45:41;;;;;;;9.45;7.40;;;38.40;31.90;;;;;;4933807;29;20193;-77
2023/07/07 14:48:23;;;;;;;9.05;7.50;;;38.40;32.10;;;;;;4916790;29;20276;-77
2023/07/07 14:50:50;;;;;;;9.93;7.90;;;38.60;32.10;;;;;;4917408;29;20814;-77
2023/07/07 14:53:20;;;;;;;12.20;8.52;;;38.90;31.90;;;;;;4932928;29;20221;-77
2023/07/07 14:55:51;;;;;;;8.15;7.45;;;39.30;30.90;;;;;;4934081;29;20669;-78
2023/07/07 14:58:24;;;;;;;10.88;8.30;;;39.90;30.90;;;;;;4915934;29;20632;-77
2023/07/07 15:00:53;;;;;;;9.27;8.40;;;39.60;30.60;;;;;;4915576;29;20230;-77
2023/07/07 15:03:25;;;;;;;9.85;8.27;;;39.80;30.30;;;;;;4915484;29;20193;-77
2023/07/07 15:06:04;;;;;;;8.27;6.90;;;39.70;29.40;;;;;;4934242;29;20190;-78
2023/07/07 15:08:30;;;;;;;14.05;7.10;;;40.50;29.80;;;;;;4916894;29;20225;-78
2023/07/07 15:11:04;;;;;;;7.32;6.57;;;40.90;28.80;;;;;;4909670;29;20217;-78
2023/07/07 15:13:30;;;;;;;8.52;7.13;;;40.70;29.10;;;;;;4933875;29;20225;-79
2023/07/07 15:15:57;;;;;;;8.20;6.95;;;40.80;29.30;;;;;;4918875;29;20244;-79
2023/07/07 15:18:23;;;;;;;7.82;7.05;;;40.80;28.80;;;;;;4916618;29;20201;-76
2023/07/07 15:20:49;;;;;;;7.55;6.65;;;40.90;28.50;;;;;;4928724;29;20211;-76
2023/07/07 15:23:15;;;;;;;8.30;6.65;;;40.40;29.00;;;;;;4914371;29;20188;-77
2023/07/07 15:25:42;;;;;;;8.07;6.82;;;40.10;30.30;;;;;;4916530;29;20201;-76
2023/07/07 15:28:16;;;;;;;7.78;6.97;;;40.50;30.10;;;;;;4916244;29;20314;-77
2023/07/07 15:30:42;;;;;;;8.27;7.07;;;40.80;29.10;;;;;;4933583;29;20583;-76
2023/07/07 15:33:10;;;;;;;9.30;7.13;;;40.80;29.70;;;;;;4933045;29;20190;-75
2023/07/07 15:35:36;;;;;;;10.55;8.15;;;41.20;29.10;;;;;;4933541;29;20730;-77
2023/07/07 15:38:23;;;;;;;8.13;7.25;;;41.40;29.00;;;;;;4933108;29;20217;-76
2023/07/07 15:40:50;;;;;;;7.72;6.97;;;41.30;29.10;;;;;;4934193;29;20294;-75
2023/07/07 15:43:16;;;;;;;7.57;6.85;;;39.90;29.40;;;;;;4933340;29;20679;-76
2023/07/07 15:45:42;;;;;;;7.70;6.95;;;39.60;29.90;;;;;;4906040;29;20214;-76
2023/07/07 15:48:12;;;;;;;8.07;6.72;;;39.80;29.70;;;;;;4917769;29;20800;-76
2023/07/07 15:50:40;;;;;;;9.27;8.20;;;38.80;30.20;;;;;;4925455;29;20221;-76
2023/07/07 15:53:06;;;;;;;9.00;8.20;;;38.10;31.40;;;;;;4924976;29;20209;-76
2023/07/07 15:55:32;;;;;;;11.25;9.15;;;38.10;31.30;;;;;;4913148;29;20199;-76
2023/07/07 15:57:58;;;;;;;10.18;9.18;;;38.50;30.80;;;;;;4912664;29;20194;-76